Time;durP1;ratioP1;P1;durP2;ratioP2;P2;SDS_P1;SDS_P2;PMS_P1;PMS_P2;Temp;Humidity;BMP_temperature;BMP_pressure;BME280_temperature;BME280_humidity;BME280_pressure;Samples;Min_cycle;Max_cycle;Signal;HPM_P1;HPM_P2
2022/07/13 00:02:14;;;;;;;12.70;7.20;;;;;;;21.88;65.34;102015.00;4992669;28;20033;-86
2022/07/13 00:04:40;;;;;;;11.63;6.70;;;;;;;21.84;65.30;102011.25;4990682;28;20441;-86
2022/07/13 00:07:05;;;;;;;10.93;6.50;;;;;;;21.82;66.05;102012.69;4983305;28;20023;-86
2022/07/13 00:09:30;;;;;;;11.20;6.90;;;;;;;21.78;65.80;102012.47;4990016;28;20052;-86
2022/07/13 00:11:56;;;;;;;9.53;7.27;;;;;;;21.76;65.53;102001.06;4987960;28;20026;-86
2022/07/13 00:14:21;;;;;;;15.20;7.20;;;;;;;21.78;65.46;102001.56;4984528;28;20129;-86
2022/07/13 00:16:46;;;;;;;9.30;6.50;;;;;;;21.76;64.95;101979.22;4985496;28;20050;-86
2022/07/13 00:19:11;;;;;;;9.47;7.20;;;;;;;21.70;64.90;101972.28;4987178;28;20493;-86
2022/07/13 00:21:37;;;;;;;13.13;6.73;;;;;;;21.58;65.46;101978.25;4990052;28;20026;-86
2022/07/13 00:24:02;;;;;;;9.17;6.50;;;;;;;21.42;66.63;101975.00;4990520;28;20425;-86
2022/07/13 00:26:27;;;;;;;9.13;7.10;;;;;;;21.26;66.60;101964.44;4985618;28;20069;-86
2022/07/13 00:28:53;;;;;;;9.00;6.80;;;;;;;21.29;66.26;101963.81;4984145;28;20462;-85
2022/07/13 00:31:19;;;;;;;7.27;6.07;;;;;;;21.35;65.97;101961.78;4991531;28;20542;-86
2022/07/13 00:33:44;;;;;;;11.43;6.70;;;;;;;21.44;65.57;101964.63;4985351;28;20106;-86
2022/07/13 00:36:09;;;;;;;12.90;6.73;;;;;;;21.45;65.35;101958.06;4982785;28;20549;-86
2022/07/13 00:38:35;;;;;;;8.70;6.53;;;;;;;21.44;65.99;101960.00;4989344;28;20585;-86
2022/07/13 00:41:00;;;;;;;7.75;6.20;;;;;;;21.39;65.85;101953.81;4988931;28;20031;-86
2022/07/13 00:43:27;;;;;;;9.97;5.73;;;;;;;21.40;65.08;101948.06;4991187;28;20058;-86
2022/07/13 00:45:52;;;;;;;10.75;6.53;;;;;;;21.41;64.73;101941.50;4994971;28;20023;-86
2022/07/13 00:48:18;;;;;;;13.53;6.30;;;;;;;21.42;63.89;101947.75;5007483;28;20021;-86
2022/07/13 00:50:45;;;;;;;7.57;5.95;;;;;;;21.41;64.36;101940.69;5008399;28;20031;-86
2022/07/13 00:53:10;;;;;;;7.00;5.67;;;;;;;21.42;63.94;101924.03;5007966;28;20010;-87
2022/07/13 00:55:35;;;;;;;9.73;5.72;;;;;;;21.43;63.55;101924.84;5000151;28;20070;-86
2022/07/13 00:58:01;;;;;;;6.87;5.43;;;;;;;21.44;63.27;101926.44;5008015;28;20026;-86
2022/07/13 01:00:26;;;;;;;7.33;5.50;;;;;;;21.44;63.60;101926.44;5006618;28;20039;-86
2022/07/13 01:02:51;;;;;;;7.33;5.90;;;;;;;21.43;62.29;101930.28;5005987;28;20077;-87
2022/07/13 01:05:17;;;;;;;7.63;5.47;;;;;;;21.44;62.08;101921.81;4991673;28;20027;-87
2022/07/13 01:07:44;;;;;;;6.88;5.68;;;;;;;21.42;62.79;101920.50;4992446;28;20042;-88
2022/07/13 01:10:11;;;;;;;7.82;5.10;;;;;;;21.43;62.69;101916.66;4991793;28;20109;-87
2022/07/13 01:12:39;;;;;;;8.23;5.35;;;;;;;21.43;63.25;101916.66;4990842;28;20382;-87
2022/07/13 01:15:06;;;;;;;9.87;5.20;;;;;;;21.42;62.73;101924.03;4982512;28;20026;-86
2022/07/13 01:17:34;;;;;;;8.43;5.20;;;;;;;21.40;62.09;101915.34;4975917;28;20325;-87
2022/07/13 01:20:00;;;;;;;6.80;4.80;;;;;;;21.41;62.73;101914.25;4987554;28;20034;-87
2022/07/13 01:22:32;;;;;;;10.45;5.45;;;;;;;21.44;62.44;101912.81;4990513;28;20034;-87
2022/07/13 01:24:58;;;;;;;6.13;4.72;;;;;;;21.44;62.12;101913.63;4989220;28;20022;-87
2022/07/13 01:27:24;;;;;;;6.45;4.93;;;;;;;21.43;61.94;101911.19;4969332;28;20031;-87
2022/07/13 01:29:49;;;;;;;7.93;4.33;;;;;;;21.43;62.13;101908.47;4976176;28;20065;-87
2022/07/13 01:32:14;;;;;;;7.28;4.38;;;;;;;21.46;60.94;101910.59;4991216;28;20091;-87
2022/07/13 01:34:39;;;;;;;8.63;4.20;;;;;;;21.47;60.67;101898.56;4990765;28;20038;-86
2022/07/13 01:37:05;;;;;;;5.90;4.37;;;;;;;21.46;61.79;101907.88;4979709;28;20037;-87
2022/07/13 01:39:30;;;;;;;5.13;4.00;;;;;;;21.48;60.85;101902.91;4991080;28;20026;-87
2022/07/13 01:41:55;;;;;;;6.70;3.90;;;;;;;21.49;60.83;101901.81;4986913;28;20031;-87
2022/07/13 01:44:21;;;;;;;4.57;3.70;;;;;;;21.51;60.49;101898.75;4989995;28;20030;-87
2022/07/13 01:46:46;;;;;;;6.20;3.30;;;;;;;21.52;60.81;101901.19;4990462;28;20069;-87
2022/07/13 01:49:12;;;;;;;5.63;3.83;;;;;;;21.51;61.31;101907.75;4995219;28;20057;-87
2022/07/13 01:51:39;;;;;;;5.50;3.60;;;;;;;21.54;61.29;101903.59;4995076;28;20484;-87
2022/07/13 01:54:05;;;;;;;4.20;3.30;;;;;;;21.52;62.20;101895.75;4985876;28;20042;-87
2022/07/13 01:56:32;;;;;;;5.35;3.45;;;;;;;21.52;62.69;101903.09;4986935;28;20030;-87
2022/07/13 01:58:57;;;;;;;4.67;3.30;;;;;;;21.53;61.89;101897.38;4994165;28;20022;-87
2022/07/13 02:01:22;;;;;;;7.13;3.50;;;;;;;21.52;62.41;101898.47;4988042;28;20053;-87
2022/07/13 02:03:48;;;;;;;5.33;3.63;;;;;;;21.51;62.54;101896.03;4991790;28;20379;-87
2022/07/13 02:06:13;;;;;;;4.90;3.53;;;;;;;21.51;62.86;101896.84;4989881;28;20033;-87
2022/07/13 02:08:38;;;;;;;4.67;3.27;;;;;;;21.47;62.06;101885.75;4993182;28;20026;-87
2022/07/13 02:11:04;;;;;;;4.70;3.33;;;;;;;21.44;61.72;101882.81;4991792;28;20034;-87
2022/07/13 02:13:29;;;;;;;6.75;2.97;;;;;;;21.43;60.17;101881.22;4989951;28;20038;-86
2022/07/13 02:15:55;;;;;;;5.20;3.30;;;;;;;21.42;60.17;101882.31;4989956;28;20046;-86
2022/07/13 02:18:20;;;;;;;4.53;3.08;;;;;;;21.37;60.17;101875.06;4981230;28;20386;-91
2022/07/13 02:20:46;;;;;;;6.07;3.13;;;;;;;21.39;59.61;101874.75;4991620;28;20088;-90
2022/07/13 02:23:11;;;;;;;4.20;3.00;;;;;;;21.38;59.40;101870.41;4987069;28;20038;-91
2022/07/13 02:25:37;;;;;;;3.63;2.60;;;;;;;21.41;58.52;101861.63;4988272;28;20710;-89
2022/07/13 02:28:04;;;;;;;4.68;2.92;;;;;;;21.43;57.93;101864.84;5001816;28;20390;-89
2022/07/13 02:30:29;;;;;;;3.85;3.10;;;;;;;21.43;58.49;101862.94;4993046;28;20429;-90
2022/07/13 02:32:55;;;;;;;6.03;3.00;;;;;;;21.42;58.85;101872.25;4989340;28;20026;-88
2022/07/13 02:35:20;;;;;;;4.80;2.90;;;;;;;21.43;58.57;101870.31;4993383;28;20027;-90
2022/07/13 02:37:45;;;;;;;4.77;2.83;;;;;;;21.41;58.71;101869.81;4991258;28;20034;-91
2022/07/13 02:40:12;;;;;;;5.50;2.90;;;;;;;21.40;59.94;101860.00;4993277;28;20092;-90
2022/07/13 02:42:38;;;;;;;4.28;2.63;;;;;;;21.35;59.79;101852.75;4985050;28;20031;-90
2022/07/13 02:45:05;;;;;;;5.53;2.90;;;;;;;21.35;60.47;101857.41;4987322;28;20035;-90
2022/07/13 02:47:30;;;;;;;5.57;2.67;;;;;;;21.36;58.97;101853.59;4991941;28;20026;-90
2022/07/13 02:49:55;;;;;;;5.17;2.80;;;;;;;21.35;59.53;101857.41;4980250;28;20128;-90
2022/07/13 02:52:22;;;;;;;5.00;2.90;;;;;;;21.33;58.97;101839.44;4996735;28;20034;-90
2022/07/13 02:54:47;;;;;;;4.13;2.80;;;;;;;21.37;58.46;101827.91;4963988;28;20035;-90
2022/07/13 02:57:12;;;;;;;3.80;3.00;;;;;;;21.36;57.94;101821.66;4976279;28;20034;-90
2022/07/13 02:59:37;;;;;;;3.47;2.90;;;;;;;21.39;58.32;101833.88;4992896;28;20273;-90
2022/07/13 03:02:04;;;;;;;4.13;3.10;;;;;;;21.38;58.47;101849.44;4992763;28;20022;-90
2022/07/13 03:04:30;;;;;;;3.40;2.85;;;;;;;21.33;59.01;101853.09;4984929;28;20063;-90
2022/07/13 03:06:56;;;;;;;5.68;3.05;;;;;;;21.32;59.07;101847.91;4989196;28;20065;-90
2022/07/13 03:09:21;;;;;;;4.77;3.40;;;;;;;21.33;58.53;101854.97;4990625;28;20029;-90
2022/07/13 03:11:47;;;;;;;4.10;3.20;;;;;;;21.31;58.79;101849.03;4985977;28;20029;-90
2022/07/13 03:14:12;;;;;;;4.87;3.07;;;;;;;21.30;58.67;101850.97;4991596;28;20042;-90
2022/07/13 03:16:37;;;;;;;8.17;3.23;;;;;;;21.34;58.33;101862.06;4991967;28;20014;-90
2022/07/13 03:19:02;;;;;;;5.20;3.00;;;;;;;21.36;58.31;101856.31;4984604;28;21233;-89
2022/07/13 03:21:29;;;;;;;6.27;3.10;;;;;;;21.35;59.31;101850.03;4974257;28;20058;-89
2022/07/13 03:23:55;;;;;;;4.25;2.95;;;;;;;21.35;58.95;101849.25;4990512;28;20030;-90
2022/07/13 03:26:20;;;;;;;5.20;3.15;;;;;;;21.33;59.00;101839.44;4983644;28;20042;-90
2022/07/13 03:28:45;;;;;;;4.93;3.20;;;;;;;21.33;58.89;101841.34;4985789;28;20029;-90
2022/07/13 03:31:11;;;;;;;4.73;3.50;;;;;;;21.33;58.72;101839.44;4990926;28;20466;-90
2022/07/13 03:33:36;;;;;;;5.73;3.30;;;;;;;21.34;59.62;101842.97;4989871;28;20061;-90
2022/07/13 03:36:01;;;;;;;3.67;2.83;;;;;;;21.32;59.03;101832.38;4991198;28;20097;-90
2022/07/13 03:38:27;;;;;;;7.00;3.22;;;;;;;21.31;59.37;101840.84;4986897;28;20482;-89
2022/07/13 03:40:52;;;;;;;6.10;3.40;;;;;;;21.34;59.29;101834.78;4990996;28;20501;-90
2022/07/13 03:43:17;;;;;;;4.60;3.10;;;;;;;21.36;59.26;101837.22;4991108;28;20134;-90
2022/07/13 03:45:42;;;;;;;11.03;3.60;;;;;;;21.32;59.09;101832.38;4989610;28;20023;-90
2022/07/13 03:48:09;;;;;;;6.00;3.30;;;;;;;21.33;59.85;101836.72;4990670;28;20045;-90
2022/07/13 03:50:34;;;;;;;6.35;3.28;;;;;;;21.31;59.22;101828.03;4993715;28;20034;-90
2022/07/13 03:53:00;;;;;;;8.93;3.53;;;;;;;21.33;59.06;101831.28;4990309;28;20034;-92
2022/07/13 03:55:25;;;;;;;4.37;3.40;;;;;;;21.36;59.25;101834.50;4986371;28;20496;-88
2022/07/13 03:57:50;;;;;;;4.73;2.97;;;;;;;21.35;59.87;101825.50;4990766;28;20030;-86
2022/07/13 04:00:16;;;;;;;5.63;3.40;;;;;;;21.35;59.40;101830.16;4983090;28;20026;-87
2022/07/13 04:02:43;;;;;;;5.05;3.50;;;;;;;21.36;59.00;101820.88;4953903;28;1047753;-87
2022/07/13 04:05:10;;;;;;;4.85;2.88;;;;;;;21.40;58.46;101822.66;4990664;28;20042;-87
2022/07/13 04:07:35;;;;;;;4.72;3.08;;;;;;;21.40;58.84;101822.66;4990857;28;20019;-87
2022/07/13 04:10:00;;;;;;;6.00;3.00;;;;;;;21.45;58.03;101827.19;4988375;28;20117;-87
2022/07/13 04:12:26;;;;;;;6.40;3.13;;;;;;;21.44;57.63;101826.41;4984958;28;20486;-85
2022/07/13 04:14:51;;;;;;;3.67;3.10;;;;;;;21.46;58.12;101824.16;4990186;28;20126;-86
2022/07/13 04:17:16;;;;;;;3.77;2.80;;;;;;;21.53;57.22;101828.38;4983931;28;20663;-85
2022/07/13 04:19:41;;;;;;;5.27;3.00;;;;;;;21.54;56.84;101827.25;4989504;28;20073;-85
2022/07/13 04:22:07;;;;;;;4.00;2.60;;;;;;;21.56;57.04;101823.09;5001770;28;20076;-83
2022/07/13 04:24:32;;;;;;;4.77;2.43;;;;;;;21.57;56.66;101815.75;4992395;28;20272;-85
2022/07/13 04:26:57;;;;;;;7.93;3.07;;;;;;;21.58;57.19;101823.59;4999445;28;20030;-85
2022/07/13 04:29:23;;;;;;;5.53;2.77;;;;;;;21.62;57.52;101815.66;4991312;28;20031;-85
2022/07/13 04:31:48;;;;;;;3.73;2.70;;;;;;;21.62;57.24;101811.00;4993307;28;20040;-85
2022/07/13 04:34:13;;;;;;;9.23;3.03;;;;;;;21.63;56.78;101815.34;4998126;28;20031;-85
2022/07/13 04:36:43;;;;;;;5.45;2.85;;;;;;;21.68;57.16;101811.69;4995042;28;20032;-85
2022/07/13 04:39:08;;;;;;;9.13;3.40;;;;;;;21.71;57.78;101799.38;5010503;28;20568;-85
2022/07/13 04:41:33;;;;;;;5.00;3.03;;;;;;;21.77;57.75;101804.38;5004832;28;20038;-85
2022/07/13 04:43:58;;;;;;;10.90;2.83;;;;;;;21.85;56.89;101811.00;4986629;28;20060;-85
2022/07/13 04:46:24;;;;;;;11.17;3.67;;;;;;;21.95;56.37;101809.94;4990905;28;20034;-85
2022/07/13 04:48:50;;;;;;;18.88;2.90;;;;;;;22.06;55.62;101799.56;4995262;28;20033;-85
2022/07/13 04:51:15;;;;;;;9.77;2.97;;;;;;;22.24;54.97;101811.38;5010322;28;20018;-83
2022/07/13 04:53:41;;;;;;;8.83;2.77;;;;;;;22.33;54.81;101804.03;4981839;28;20070;-83
2022/07/13 04:56:06;;;;;;;10.23;3.03;;;;;;;22.38;54.76;101814.81;4989998;28;20019;-85
2022/07/13 04:58:32;;;;;;;7.27;3.30;;;;;;;22.41;54.90;101804.38;4988979;28;20298;-86
2022/07/13 05:00:58;;;;;;;9.10;3.00;;;;;;;22.41;55.01;101807.09;4991347;28;20161;-86
2022/07/13 05:03:23;;;;;;;4.77;2.80;;;;;;;22.43;54.40;101802.16;4981239;28;20124;-85
2022/07/13 05:05:48;;;;;;;10.90;2.83;;;;;;;22.53;54.11;101807.38;5010290;28;20088;-85
2022/07/13 05:08:14;;;;;;;5.97;2.83;;;;;;;22.61;54.66;101805.78;4992283;28;20817;-85
2022/07/13 05:10:39;;;;;;;8.20;2.90;;;;;;;22.66;54.19;101802.88;5002361;28;20098;-85
2022/07/13 05:13:04;;;;;;;3.10;2.80;;;;;;;22.70;53.75;101798.41;4996317;28;20029;-85
2022/07/13 05:15:29;;;;;;;4.00;2.83;;;;;;;22.75;53.66;101800.19;4989598;28;20015;-85
2022/07/13 05:17:55;;;;;;;4.13;3.00;;;;;;;22.79;54.41;101795.69;4994558;28;20030;-85
2022/07/13 05:20:20;;;;;;;8.47;2.70;;;;;;;22.84;54.04;101807.28;4994198;28;20058;-84
2022/07/13 05:22:45;;;;;;;6.03;3.30;;;;;;;22.94;53.77;101806.16;4992120;28;20033;-86
2022/07/13 05:25:11;;;;;;;5.20;2.97;;;;;;;23.00;53.80;101806.84;4991633;28;20038;-86
2022/07/13 05:27:36;;;;;;;6.57;3.00;;;;;;;23.00;53.44;101804.09;4983662;28;20023;-86
2022/07/13 05:30:03;;;;;;;4.03;2.93;;;;;;;23.00;53.56;101806.84;4994135;28;20029;-84
2022/07/13 05:32:28;;;;;;;5.03;3.25;;;;;;;22.93;53.80;101798.28;4985546;28;20022;-86
2022/07/13 05:34:54;;;;;;;6.37;2.53;;;;;;;22.93;53.76;101801.03;4988563;28;20034;-85
2022/07/13 05:37:19;;;;;;;8.55;2.90;;;;;;;22.96;53.71;101808.59;4986459;28;20088;-86
2022/07/13 05:39:46;;;;;;;6.17;2.67;;;;;;;23.02;53.45;101812.75;4993681;28;20061;-86
2022/07/13 05:42:12;;;;;;;7.32;3.22;;;;;;;23.06;54.07;101816.47;4993747;28;20041;-86
2022/07/13 05:44:37;;;;;;;10.13;3.17;;;;;;;23.05;53.32;101816.81;4989645;28;20062;-86
2022/07/13 05:47:03;;;;;;;6.17;2.93;;;;;;;23.02;53.83;101807.31;4971096;28;20025;-86
2022/07/13 05:49:28;;;;;;;10.00;3.17;;;;;;;23.01;53.78;101822.09;4980937;28;20027;-86
2022/07/13 05:51:54;;;;;;;7.47;3.10;;;;;;;22.94;53.73;101821.78;4989299;28;20066;-85
2022/07/13 05:54:19;;;;;;;4.20;2.80;;;;;;;22.89;54.43;101828.19;4987838;28;20382;-85
2022/07/13 05:56:45;;;;;;;9.17;3.20;;;;;;;22.78;54.37;101824.13;4992547;28;20026;-85
2022/07/13 05:59:10;;;;;;;5.90;3.00;;;;;;;22.85;53.76;101829.94;4989505;28;20075;-85
2022/07/13 06:01:35;;;;;;;4.10;2.80;;;;;;;23.14;53.60;101825.81;4984292;28;20033;-86
2022/07/13 06:04:00;;;;;;;4.73;2.67;;;;;;;23.61;53.24;101833.41;4991547;28;20456;-87
2022/07/13 06:06:26;;;;;;;5.43;3.00;;;;;;;24.13;51.16;101826.28;4992489;28;20384;-88
2022/07/13 06:08:51;;;;;;;5.43;2.80;;;;;;;24.44;50.89;101826.00;4986147;28;20040;-86
2022/07/13 06:11:16;;;;;;;5.38;2.65;;;;;;;24.42;50.76;101822.00;4991278;28;20034;-85
2022/07/13 06:13:42;;;;;;;5.67;2.87;;;;;;;24.38;50.69;101832.78;4991212;28;20077;-85
2022/07/13 06:16:07;;;;;;;9.57;2.67;;;;;;;24.45;50.35;101835.81;4992397;28;20027;-86
2022/07/13 06:18:32;;;;;;;4.97;3.10;;;;;;;24.66;50.84;101832.34;4984958;28;20057;-85
2022/07/13 06:20:58;;;;;;;5.93;2.67;;;;;;;24.83;49.63;101834.25;4978954;28;20033;-85
2022/07/13 06:23:23;;;;;;;3.92;2.55;;;;;;;24.93;50.28;101833.03;4992659;28;20042;-86
2022/07/13 06:25:49;;;;;;;4.87;3.00;;;;;;;25.01;50.21;101842.34;4992353;28;20661;-85
2022/07/13 06:28:14;;;;;;;4.20;2.53;;;;;;;25.09;49.45;101845.03;4999088;28;20032;-85
2022/07/13 06:30:39;;;;;;;4.93;3.03;;;;;;;25.23;48.72;101844.75;4993373;28;20489;-85
2022/07/13 06:33:05;;;;;;;4.07;2.50;;;;;;;25.30;48.95;101832.47;4987707;28;20053;-84
2022/07/13 06:35:31;;;;;;;8.70;2.83;;;;;;;25.52;49.09;101834.88;4991539;28;20430;-85
2022/07/13 06:37:57;;;;;;;5.25;2.90;;;;;;;25.77;47.85;101823.19;4992466;28;20717;-85
2022/07/13 06:40:23;;;;;;;6.37;2.90;;;;;;;25.97;47.77;101832.50;4987023;28;20034;-84
2022/07/13 06:42:49;;;;;;;8.60;3.17;;;;;;;26.17;46.49;101825.38;4989877;28;20038;-86
2022/07/13 06:45:15;;;;;;;6.28;2.88;;;;;;;26.37;45.73;101825.63;4982093;28;20030;-85
2022/07/13 06:47:42;;;;;;;7.10;2.90;;;;;;;26.44;45.46;101826.66;4991134;28;20039;-85
2022/07/13 06:50:08;;;;;;;6.10;3.00;;;;;;;26.47;45.55;101822.44;4975286;28;20458;-84
2022/07/13 06:52:33;;;;;;;7.87;2.93;;;;;;;26.36;45.53;101827.56;4985743;28;20286;-84
2022/07/13 06:54:59;;;;;;;9.38;3.10;;;;;;;26.20;45.78;101821.16;4985981;28;20030;-85
2022/07/13 06:57:24;;;;;;;10.93;3.60;;;;;;;26.17;46.13;101819.06;4985831;28;20042;-85
2022/07/13 06:59:49;;;;;;;4.33;3.10;;;;;;;26.32;46.04;101820.38;4991565;28;20042;-85
2022/07/13 07:02:15;;;;;;;5.93;3.23;;;;;;;26.68;44.99;101816.00;4981172;28;20473;-86
2022/07/13 07:04:40;;;;;;;10.27;3.27;;;;;;;27.05;45.55;101826.97;4987169;28;20054;-85
2022/07/13 07:07:05;;;;;;;4.93;3.27;;;;;;;27.08;45.05;101822.72;4999935;28;20296;-83
2022/07/13 07:09:31;;;;;;;10.30;3.27;;;;;;;27.00;45.30;101819.78;4985891;28;20387;-83
2022/07/13 07:11:56;;;;;;;7.50;3.10;;;;;;;27.00;45.00;101833.53;4990044;28;20030;-85
2022/07/13 07:14:21;;;;;;;9.57;2.60;;;;;;;27.08;44.98;101833.72;4988876;28;20081;-84
2022/07/13 07:16:47;;;;;;;34.70;3.57;;;;;;;27.06;45.58;101840.38;4988158;28;20502;-84
2022/07/13 07:19:12;;;;;;;12.10;3.38;;;;;;;27.02;46.07;101831.22;4995268;28;20034;-84
2022/07/13 07:21:38;;;;;;;8.10;3.10;;;;;;;26.94;46.25;101839.59;4979984;28;20026;-81
2022/07/13 07:24:04;;;;;;;6.37;2.90;;;;;;;26.83;46.77;101831.03;4992136;28;20501;-83
2022/07/13 07:26:32;;;;;;;8.25;3.47;;;;;;;26.65;46.58;101831.25;4992068;28;20470;-83
2022/07/13 07:28:58;;;;;;;10.45;3.45;;;;;;;26.83;47.59;101836.53;4992186;28;20069;-83
2022/07/13 07:31:24;;;;;;;7.07;3.63;;;;;;;27.34;46.36;101828.63;4983085;28;20362;-83
2022/07/13 07:33:50;;;;;;;31.27;4.45;;;;;;;27.77;45.53;101826.28;4988847;28;20574;-82
2022/07/13 07:36:16;;;;;;;10.80;3.63;;;;;;;28.04;44.39;101828.53;4979338;28;20057;-85
2022/07/13 07:38:44;;;;;;;10.65;3.83;;;;;;;28.14;44.84;101832.75;4989055;28;20073;-84
2022/07/13 07:41:10;;;;;;;8.32;4.15;;;;;;;28.07;44.38;101828.63;4978700;28;20026;-85
2022/07/13 07:43:36;;;;;;;6.13;4.33;;;;;;;27.89;44.91;101819.91;4990490;28;20037;-86
2022/07/13 07:46:02;;;;;;;9.45;4.38;;;;;;;27.91;44.73;101819.53;4988304;28;20030;-84
2022/07/13 07:48:27;;;;;;;7.27;4.17;;;;;;;27.90;45.31;101828.94;4980383;28;20022;-84
2022/07/13 07:50:52;;;;;;;7.50;4.70;;;;;;;27.78;45.55;101821.56;4973901;28;20030;-83
2022/07/13 07:53:18;;;;;;;8.73;4.20;;;;;;;27.94;45.98;101822.38;4973601;28;20042;-84
2022/07/13 07:55:43;;;;;;;10.93;4.50;;;;;;;27.91;45.57;101823.09;4990753;28;20387;-83
2022/07/13 07:58:08;;;;;;;11.63;4.30;;;;;;;27.90;46.19;101824.25;4985152;28;20646;-87
2022/07/13 08:00:34;;;;;;;59.77;7.87;;;;;;;28.37;45.03;101821.88;4985145;28;20041;-86
2022/07/13 08:03:02;;;;;;;8.10;4.20;;;;;;;28.66;44.50;101819.81;4985636;28;20421;-86
2022/07/13 08:05:29;;;;;;;117.17;9.50;;;;;;;28.65;44.25;101813.50;4988366;28;20022;-86
2022/07/13 08:07:54;;;;;;;27.43;5.33;;;;;;;28.64;45.08;101814.66;4986044;28;20297;-85
2022/07/13 08:10:19;;;;;;;14.57;4.90;;;;;;;28.74;44.25;101821.59;4991161;28;20034;-85
2022/07/13 08:12:45;;;;;;;16.17;4.60;;;;;;;29.08;43.91;101819.19;4988905;28;20022;-86
2022/07/13 08:15:10;;;;;;;8.17;4.00;;;;;;;29.42;44.34;101818.72;4986850;28;20409;-84
2022/07/13 08:17:36;;;;;;;29.27;4.40;;;;;;;29.62;43.64;101827.75;4978809;28;20041;-84
2022/07/13 08:20:03;;;;;;;30.20;5.45;;;;;;;29.29;43.64;101824.34;4985219;28;20034;-85
2022/07/13 08:22:29;;;;;;;7.53;4.97;;;;;;;29.10;44.33;101838.94;4983991;28;20110;-83
2022/07/13 08:24:54;;;;;;;30.20;6.03;;;;;;;29.13;44.19;101834.63;4990643;28;20105;-85
2022/07/13 08:27:20;;;;;;;13.55;5.32;;;;;;;29.21;44.20;101839.16;4969578;28;20025;-85
2022/07/13 08:29:46;;;;;;;12.67;5.23;;;;;;;29.34;44.06;101831.53;4990766;28;20501;-86
2022/07/13 08:32:11;;;;;;;25.83;5.78;;;;;;;29.39;44.48;101831.28;4990917;28;20018;-86
2022/07/13 08:40:08;;;;;;;12.23;5.97;;;;;;;30.75;42.56;101839.56;4985087;28;20084;-84
2022/07/13 08:42:35;;;;;;;15.17;5.70;;;;;;;30.82;42.70;101847.16;4990142;28;20460;-84
2022/07/13 08:45:01;;;;;;;15.00;5.27;;;;;;;31.06;42.40;101836.78;4981251;28;20286;-85
2022/07/13 08:47:30;;;;;;;9.65;4.90;;;;;;;31.28;41.67;101840.66;4978133;28;20038;-85
2022/07/13 08:50:04;;;;;;;13.82;5.85;;;;;;;31.34;41.11;101838.34;4967615;28;20089;-85
2022/07/13 08:52:30;;;;;;;17.13;5.40;;;;;;;31.20;41.04;101839.78;4985993;28;20072;-84
2022/07/13 08:54:56;;;;;;;12.27;4.85;;;;;;;31.21;40.47;101841.38;4984962;28;20034;-84
2022/07/13 08:57:22;;;;;;;14.82;4.97;;;;;;;31.20;40.92;101839.78;4976985;28;20085;-82
2022/07/13 08:59:47;;;;;;;8.10;5.17;;;;;;;31.41;40.37;101841.19;4983670;28;20022;-82
2022/07/13 09:02:12;;;;;;;11.00;4.30;;;;;;;31.18;40.34;101831.06;4986697;28;20018;-84
2022/07/13 09:04:39;;;;;;;10.30;4.40;;;;;;;31.41;39.78;101836.47;4971968;28;20022;-84
2022/07/13 09:07:10;;;;;;;10.43;4.40;;;;;;;31.63;39.73;101841.41;4987862;28;20023;-83
2022/07/13 09:09:38;;;;;;;7.32;4.43;;;;;;;31.77;38.87;101838.03;4978574;28;20428;-84
2022/07/13 09:12:23;;;;;;;8.75;4.63;;;;;;;31.87;39.14;101849.22;4983966;28;20446;-84
2022/07/13 09:14:54;;;;;;;11.23;4.10;;;;;;;31.93;39.18;101854.44;4961068;28;20058;-84
2022/07/13 09:17:26;;;;;;;7.50;4.20;;;;;;;32.26;39.09;101849.94;4986691;28;20114;-85
2022/07/13 09:19:51;;;;;;;5.40;4.17;;;;;;;32.05;37.91;101847.78;4990010;28;20035;-84
2022/07/13 09:22:17;;;;;;;8.13;3.87;;;;;;;32.04;37.87;101854.53;4990440;28;20344;-84
2022/07/13 09:24:46;;;;;;;8.20;4.20;;;;;;;31.86;37.80;101849.63;4978193;28;20101;-84
2022/07/13 09:27:14;;;;;;;7.30;3.78;;;;;;;31.94;37.45;101858.78;4979651;28;20429;-85
2022/07/13 09:29:39;;;;;;;6.65;4.43;;;;;;;31.55;38.08;101852.44;4979205;28;20023;-86
2022/07/13 09:32:07;;;;;;;7.10;4.15;;;;;;;31.49;38.84;101853.16;4981019;28;20081;-86
2022/07/13 09:34:53;;;;;;;12.20;4.47;;;;;;;31.70;39.69;101858.13;4983305;28;20022;-85
2022/07/13 09:37:30;;;;;;;9.30;3.88;;;;;;;32.00;38.24;101860.81;4981359;28;20069;-86
2022/07/13 09:40:09;;;;;;;15.43;3.70;;;;;;;31.88;37.94;101852.78;4987066;28;20069;-88
2022/07/13 09:42:39;;;;;;;7.65;4.13;;;;;;;31.67;38.25;101867.19;4987052;28;20453;-89
2022/07/13 09:47:53;;;;;;;5.35;3.88;;;;;;;31.41;38.51;101852.25;4989538;28;20093;-88
2022/07/13 09:50:40;;;;;;;6.80;3.72;;;;;;;31.33;39.08;101856.13;4985815;28;20046;-88
2022/07/13 09:53:27;;;;;;;7.07;3.10;;;;;;;31.41;39.67;101847.53;4990242;28;20026;-88
2022/07/13 09:55:53;;;;;;;5.18;3.70;;;;;;;31.14;39.25;101860.66;4989985;28;20482;-88
2022/07/13 09:58:26;;;;;;;9.20;3.80;;;;;;;31.06;39.10;101854.19;4987569;28;20113;-88
2022/07/13 10:00:54;;;;;;;4.85;3.63;;;;;;;30.95;40.13;101862.34;4986972;28;20026;-88
2022/07/13 10:03:20;;;;;;;10.88;3.80;;;;;;;30.99;40.04;101861.59;4991663;28;20073;-88
2022/07/13 10:05:46;;;;;;;7.93;3.28;;;;;;;31.15;40.59;101859.47;4993386;28;20034;-88
2022/07/13 10:08:16;;;;;;;7.72;3.70;;;;;;;31.11;39.90;101867.72;4988980;28;20037;-87
2022/07/13 10:10:41;;;;;;;5.68;3.20;;;;;;;31.15;39.58;101856.72;4992912;28;20117;-87
2022/07/13 10:13:06;;;;;;;4.40;3.03;;;;;;;31.70;38.99;101869.19;4993444;28;20119;-87
2022/07/13 10:15:32;;;;;;;6.50;3.10;;;;;;;31.82;37.38;101868.16;4992658;28;20021;-88
2022/07/13 10:18:00;;;;;;;6.37;3.07;;;;;;;32.02;36.21;101863.19;4993455;28;20081;-87
2022/07/13 10:20:28;;;;;;;7.38;2.50;;;;;;;31.95;34.97;101868.69;4989874;28;20026;-88
2022/07/13 10:22:53;;;;;;;5.18;2.63;;;;;;;31.94;33.83;101869.88;4986346;28;20034;-88
2022/07/13 10:25:23;;;;;;;3.55;2.75;;;;;;;31.98;34.11;101879.00;4992974;28;20374;-88
2022/07/13 10:28:03;;;;;;;5.97;2.75;;;;;;;32.27;35.11;101862.66;4993476;28;20118;-89
2022/07/13 10:30:29;;;;;;;5.30;2.60;;;;;;;32.06;34.92;101866.00;4990489;28;20441;-88
2022/07/13 10:33:19;;;;;;;6.07;2.90;;;;;;;32.06;36.13;101874.31;4993307;28;20281;-88
2022/07/13 10:35:49;;;;;;;6.13;2.60;;;;;;;31.91;36.51;101876.97;4992771;28;20485;-89
2022/07/13 10:38:26;;;;;;;7.88;3.30;;;;;;;31.92;35.63;101873.00;4984139;28;20034;-87
2022/07/13 10:41:19;;;;;;;7.47;3.00;;;;;;;32.09;36.30;101879.91;4991238;28;20486;-87
2022/07/13 10:44:01;;;;;;;5.38;2.90;;;;;;;31.76;35.95;101878.00;4974859;28;20034;-88
2022/07/13 10:46:48;;;;;;;10.18;2.80;;;;;;;32.21;36.63;101872.47;4993206;28;20033;-88
2022/07/13 10:49:32;;;;;;;7.40;2.50;;;;;;;32.63;35.48;101880.34;4972672;28;20102;-87
2022/07/13 10:52:25;;;;;;;4.68;2.70;;;;;;;32.96;35.44;101886.13;4986727;28;20042;-88
2022/07/13 10:55:11;;;;;;;6.32;3.17;;;;;;;33.42;34.35;101892.31;4985991;28;20609;-87
2022/07/13 10:57:38;;;;;;;6.93;3.00;;;;;;;33.43;32.50;101880.81;4979136;28;20783;-87
2022/07/13 11:00:24;;;;;;;4.33;2.90;;;;;;;33.38;32.66;101881.19;4981746;28;20289;-87
2022/07/13 11:02:50;;;;;;;3.10;2.80;;;;;;;33.51;32.59;101887.97;4992337;28;20490;-88
2022/07/13 11:05:18;;;;;;;4.93;2.95;;;;;;;33.15;33.29;101878.69;4991954;28;20072;-87
2022/07/13 11:07:48;;;;;;;3.45;3.15;;;;;;;32.64;34.61;101878.38;4988368;28;20027;-89
2022/07/13 11:10:30;;;;;;;5.85;3.53;;;;;;;32.34;35.37;101887.66;4960998;28;20121;-89
2022/07/13 11:13:01;;;;;;;6.75;2.97;;;;;;;32.21;35.52;101891.88;4991257;28;20427;-89
2022/07/13 11:15:45;;;;;;;7.93;3.10;;;;;;;32.15;35.66;101897.75;4991945;28;20112;-87
2022/07/13 11:18:24;;;;;;;10.43;2.78;;;;;;;31.90;36.71;101883.66;4991407;28;20064;-87
2022/07/13 11:21:12;;;;;;;6.15;3.10;;;;;;;32.16;35.76;101884.72;4984809;28;20030;-87
2022/07/13 11:26:53;;;;;;;7.23;3.13;;;;;;;32.18;35.84;101890.69;4991531;28;20264;-87
2022/07/13 11:29:39;;;;;;;2.72;2.45;;;;;;;32.27;35.30;101890.38;4982545;28;20066;-89
2022/07/13 11:32:06;;;;;;;3.83;2.55;;;;;;;32.74;34.60;101879.63;4980094;28;20073;-86
2022/07/13 11:34:36;;;;;;;6.15;3.10;;;;;;;33.21;34.92;101888.25;4973060;28;20037;-86
2022/07/13 11:37:02;;;;;;;9.60;2.97;;;;;;;33.51;34.49;101893.53;4976560;28;20023;-86